Terminal Aerodrome Forecast
Issued by NWS Pittsburgh, PA

Current Version | Previous Version | Graphics & Text | Print | Product List | Glossary On
Versions: 1 2 3 4 5 6 7 8 9 10 11 12 13 14 15 16 17 18 19 20 21 22 23 24 25 26 27 28 29 30 31 32
000
FTUS41 KPBZ 201100
TAFPIT
TAF
KPIT 201128Z 2012/2118 20003KT P6SM OVC150
     FM201500 22010KT P6SM BKN100
     FM202300 20005KT P6SM -SHRA OVC050
     FM210600 25005KT P6SM VCSH BKN025=

USA.gov is the U.S. government's official web portal to all federal, state and local government web resources and services.